Time;durP1;ratioP1;P1;durP2;ratioP2;P2;SDS_P1;SDS_P2;PMS_P1;PMS_P2;Temp;Humidity;BMP_temperature;BMP_pressure;BME280_temperature;BME280_humidity;BME280_pressure;Samples;Min_cycle;Max_cycle;Signal;HPM_P1;HPM_P2
2022/09/22 00:01:05;;;;;;;7.43;4.82;;;;;;;;;;5034050;28;20115;-69
2022/09/22 00:03:45;;;;;;;5.77;4.20;;;;;;;;;;5032677;28;20057;-69
2022/09/22 00:06:14;;;;;;;6.07;4.68;;;;;;;;;;5016918;28;20184;-69
2022/09/22 00:08:43;;;;;;;5.72;4.43;;;;;;;;;;5034044;28;20072;-69
2022/09/22 00:11:17;;;;;;;7.18;4.95;;;;;;;;;;5033861;28;20084;-69
2022/09/22 00:13:51;;;;;;;5.97;4.38;;;;;;;;;;5017193;28;20392;-69
2022/09/22 00:16:23;;;;;;;6.95;4.93;;;;;;;;;;5034125;28;20132;-69
2022/09/22 00:18:50;;;;;;;5.78;4.22;;;;;;;;;;5033785;28;20435;-69
2022/09/22 00:21:18;;;;;;;5.32;4.00;;;;;;;;;;5033734;28;20073;-69
2022/09/22 00:23:46;;;;;;;6.93;4.07;;;;;;;;;;5016297;28;20107;-69
2022/09/22 00:26:17;;;;;;;6.43;4.13;;;;;;;;;;5033741;28;20060;-69
2022/09/22 00:28:46;;;;;;;5.28;4.13;;;;;;;;;;5033727;28;20132;-69
2022/09/22 00:31:16;;;;;;;4.75;4.22;;;;;;;;;;5033756;28;20612;-69
2022/09/22 00:33:45;;;;;;;6.07;4.38;;;;;;;;;;5033957;28;20085;-69
2022/09/22 00:36:12;;;;;;;5.25;4.55;;;;;;;;;;5033649;28;20462;-69
2022/09/22 00:38:39;;;;;;;5.93;4.60;;;;;;;;;;5015507;28;20042;-69
2022/09/22 00:41:09;;;;;;;4.57;3.97;;;;;;;;;;5033413;28;20081;-69
2022/09/22 00:43:37;;;;;;;6.30;4.35;;;;;;;;;;5015999;28;20579;-69
2022/09/22 00:46:11;;;;;;;6.85;5.18;;;;;;;;;;5033431;28;20085;-69
2022/09/22 00:48:43;;;;;;;4.85;4.30;;;;;;;;;;5033088;28;20112;-69
2022/09/22 00:51:09;;;;;;;6.30;4.57;;;;;;;;;;5015030;28;20137;-69
2022/09/22 00:53:36;;;;;;;8.60;4.15;;;;;;;;;;5015846;28;20049;-69
2022/09/22 00:56:11;;;;;;;6.03;4.22;;;;;;;;;;4999264;28;20534;-68
2022/09/22 00:58:46;;;;;;;5.57;4.20;;;;;;;;;;5015613;28;20077;-68
2022/09/22 01:01:14;;;;;;;6.10;4.85;;;;;;;;;;5032877;28;20137;-69
2022/09/22 01:03:41;;;;;;;4.85;4.32;;;;;;;;;;4999865;28;20072;-69
2022/09/22 01:06:11;;;;;;;6.75;5.00;;;;;;;;;;4999395;28;20080;-69
2022/09/22 01:08:38;;;;;;;8.98;5.38;;;;;;;;;;4999394;28;20091;-69
2022/09/22 01:11:05;;;;;;;8.02;5.97;;;;;;;;;;4999180;28;20081;-69
2022/09/22 01:13:55;;;;;;;5.70;4.88;;;;;;;;;;5015483;28;20143;-69
2022/09/22 01:16:27;;;;;;;6.55;4.30;;;;;;;;;;5002027;28;20088;-69
2022/09/22 01:19:20;;;;;;;5.07;4.57;;;;;;;;;;5012924;28;20701;-69
2022/09/22 01:21:46;;;;;;;6.80;4.88;;;;;;;;;;5013006;28;20575;-68
2022/09/22 01:24:24;;;;;;;5.40;4.72;;;;;;;;;;5021183;28;20128;-69
2022/09/22 01:27:30;;;;;;;6.95;4.90;;;;;;;;;;5015483;28;20072;-69
2022/09/22 01:30:16;;;;;;;6.60;4.90;;;;;;;;;;5005920;28;20140;-69
2022/09/22 01:32:48;;;;;;;6.93;5.38;;;;;;;;;;5015030;28;20132;-69
2022/09/22 01:35:28;;;;;;;5.72;4.75;;;;;;;;;;5032379;28;20081;-68
2022/09/22 01:38:07;;;;;;;9.77;5.15;;;;;;;;;;5014787;28;20072;-68
2022/09/22 01:40:50;;;;;;;6.65;5.15;;;;;;;;;;5014792;28;20427;-69
2022/09/22 01:43:31;;;;;;;6.78;6.00;;;;;;;;;;5000169;28;20049;-69
2022/09/22 01:45:59;;;;;;;7.32;5.30;;;;;;;;;;5032228;28;20103;-69
2022/09/22 01:48:28;;;;;;;7.07;5.38;;;;;;;;;;4998507;28;20132;-69
2022/09/22 01:51:05;;;;;;;7.30;5.03;;;;;;;;;;4998755;28;20076;-69
2022/09/22 01:53:35;;;;;;;6.97;5.35;;;;;;;;;;5014520;28;20060;-69
2022/09/22 01:56:05;;;;;;;6.00;5.40;;;;;;;;;;5014808;28;20053;-68
2022/09/22 01:58:34;;;;;;;5.78;5.28;;;;;;;;;;4998973;28;20053;-69
2022/09/22 02:03:37;;;;;;;7.35;5.45;;;;;;;;;;4971072;28;20089;-67
2022/09/22 02:06:09;;;;;;;6.38;5.43;;;;;;;;;;4957018;28;20055;-67
2022/09/22 02:08:51;;;;;;;6.10;4.97;;;;;;;;;;4956744;28;20046;-67
2022/09/22 02:11:18;;;;;;;6.35;4.80;;;;;;;;;;4974319;28;20096;-67
2022/09/22 02:13:45;;;;;;;6.57;5.50;;;;;;;;;;4973919;28;20054;-67
2022/09/22 02:16:13;;;;;;;6.97;5.72;;;;;;;;;;4956961;28;20081;-67
2022/09/22 02:18:41;;;;;;;7.65;5.38;;;;;;;;;;4956767;28;20101;-67
2022/09/22 02:21:08;;;;;;;5.88;4.88;;;;;;;;;;4937314;29;20059;-67
2022/09/22 02:23:35;;;;;;;8.77;5.80;;;;;;;;;;4937104;29;20121;-67
2022/09/22 02:26:02;;;;;;;6.97;5.18;;;;;;;;;;4956352;28;20062;-68
2022/09/22 02:28:30;;;;;;;6.72;5.30;;;;;;;;;;4936593;29;20043;-68
2022/09/22 02:30:58;;;;;;;5.72;4.88;;;;;;;;;;4937226;29;20110;-68
2022/09/22 02:33:44;;;;;;;7.20;5.45;;;;;;;;;;4937969;28;20090;-68
2022/09/22 02:36:37;;;;;;;7.82;5.05;;;;;;;;;;4973257;28;20051;-67
2022/09/22 02:39:08;;;;;;;11.43;5.53;;;;;;;;;;4942288;28;20069;-67
2022/09/22 02:41:44;;;;;;;6.32;5.05;;;;;;;;;;4956106;28;20051;-67
2022/09/22 02:44:35;;;;;;;6.68;5.13;;;;;;;;;;4956290;28;20187;-67
2022/09/22 02:47:12;;;;;;;5.15;4.53;;;;;;;;;;4940770;28;20481;-67
2022/09/22 02:49:40;;;;;;;6.88;4.72;;;;;;;;;;4956860;28;20051;-67
2022/09/22 02:52:09;;;;;;;6.03;4.88;;;;;;;;;;4939993;28;20058;-67
2022/09/22 02:54:36;;;;;;;5.28;4.70;;;;;;;;;;4972334;28;20469;-67
2022/09/22 02:57:02;;;;;;;5.70;4.88;;;;;;;;;;4935038;29;20110;-67
2022/09/22 02:59:29;;;;;;;5.97;4.90;;;;;;;;;;4935362;28;20097;-67
2022/09/22 03:01:56;;;;;;;7.53;5.15;;;;;;;;;;4972499;28;20109;-67
2022/09/22 03:04:22;;;;;;;7.10;5.15;;;;;;;;;;4973033;28;20093;-67
2022/09/22 03:06:49;;;;;;;6.40;4.63;;;;;;;;;;4972729;28;20055;-67
2022/09/22 03:09:16;;;;;;;6.25;4.90;;;;;;;;;;4958916;28;20055;-67
2022/09/22 03:11:43;;;;;;;8.63;5.32;;;;;;;;;;4953723;28;20059;-67
2022/09/22 03:14:10;;;;;;;6.80;4.88;;;;;;;;;;4954525;28;20047;-67
2022/09/22 03:16:36;;;;;;;5.50;4.68;;;;;;;;;;4973386;28;20058;-68
2022/09/22 03:19:03;;;;;;;6.32;5.00;;;;;;;;;;4976156;28;20050;-67
2022/09/22 03:21:30;;;;;;;9.90;5.20;;;;;;;;;;4967860;28;20106;-68
2022/09/22 03:23:56;;;;;;;8.02;5.55;;;;;;;;;;4975987;28;20469;-67
2022/09/22 03:26:23;;;;;;;7.85;4.78;;;;;;;;;;4976647;28;20179;-68
2022/09/22 03:28:50;;;;;;;7.40;5.78;;;;;;;;;;4976032;28;20097;-67
2022/09/22 03:31:16;;;;;;;6.90;5.63;;;;;;;;;;4975343;28;20505;-68
2022/09/22 03:33:43;;;;;;;8.10;4.65;;;;;;;;;;4973123;28;20047;-68
2022/09/22 03:36:14;;;;;;;5.50;4.95;;;;;;;;;;4963768;28;20054;-68
2022/09/22 03:38:41;;;;;;;5.40;4.82;;;;;;;;;;4976266;28;20043;-67
2022/09/22 03:41:07;;;;;;;5.85;4.85;;;;;;;;;;4970831;28;20470;-67
2022/09/22 03:43:34;;;;;;;9.30;5.80;;;;;;;;;;4958302;28;20126;-67
2022/09/22 03:46:01;;;;;;;6.70;4.75;;;;;;;;;;4956742;29;20047;-68
2022/09/22 03:48:28;;;;;;;8.07;5.45;;;;;;;;;;4937676;29;20048;-67
2022/09/22 03:50:56;;;;;;;7.40;5.85;;;;;;;;;;4937726;29;20107;-67
2022/09/22 03:53:23;;;;;;;6.13;4.72;;;;;;;;;;4937875;28;20059;-67
2022/09/22 03:55:50;;;;;;;7.10;4.93;;;;;;;;;;4972938;28;20529;-68
2022/09/22 03:58:19;;;;;;;7.55;4.72;;;;;;;;;;4975741;28;20105;-67
2022/09/22 04:00:47;;;;;;;5.32;4.75;;;;;;;;;;4966633;28;20051;-67
2022/09/22 04:03:14;;;;;;;6.10;4.70;;;;;;;;;;4968938;28;20055;-67
2022/09/22 04:05:48;;;;;;;5.13;4.63;;;;;;;;;;4959662;28;20078;-67
2022/09/22 04:08:14;;;;;;;5.90;4.78;;;;;;;;;;4956067;29;20051;-68
2022/09/22 04:10:41;;;;;;;8.43;4.97;;;;;;;;;;4968647;28;20462;-68
2022/09/22 04:13:08;;;;;;;7.55;5.30;;;;;;;;;;4960846;28;20106;-68
2022/09/22 04:15:34;;;;;;;5.90;4.93;;;;;;;;;;4961239;28;20047;-68
2022/09/22 04:18:01;;;;;;;5.88;5.03;;;;;;;;;;4956221;29;20102;-68
2022/09/22 04:20:29;;;;;;;6.20;4.78;;;;;;;;;;4956252;29;20470;-67
2022/09/22 04:22:55;;;;;;;6.30;4.85;;;;;;;;;;4956137;29;20054;-67
2022/09/22 04:25:22;;;;;;;5.72;4.45;;;;;;;;;;4955617;28;20059;-67
2022/09/22 04:27:49;;;;;;;7.10;4.68;;;;;;;;;;4955731;29;20087;-67
2022/09/22 04:30:15;;;;;;;5.22;4.72;;;;;;;;;;4955587;29;20462;-67
2022/09/22 04:32:43;;;;;;;5.82;4.90;;;;;;;;;;4956166;29;20062;-67
2022/09/22 04:35:10;;;;;;;7.90;4.68;;;;;;;;;;4938951;29;20048;-67
2022/09/22 04:37:36;;;;;;;8.70;5.22;;;;;;;;;;4956033;29;20422;-67
2022/09/22 04:40:04;;;;;;;5.80;4.65;;;;;;;;;;4957507;28;20078;-67
2022/09/22 04:42:31;;;;;;;8.55;5.57;;;;;;;;;;4957281;28;20062;-68
2022/09/22 04:45:00;;;;;;;6.75;5.45;;;;;;;;;;4955646;29;20075;-68
2022/09/22 04:47:30;;;;;;;9.32;6.18;;;;;;;;;;4961314;28;20242;-67
2022/09/22 04:49:56;;;;;;;8.52;6.97;;;;;;;;;;4950380;28;20102;-68
2022/09/22 04:52:23;;;;;;;11.13;6.60;;;;;;;;;;4955087;29;20047;-68
2022/09/22 04:54:50;;;;;;;9.20;6.43;;;;;;;;;;4955552;29;20051;-68
2022/09/22 04:57:17;;;;;;;8.98;6.10;;;;;;;;;;4955377;29;20051;-68
2022/09/22 04:59:46;;;;;;;9.00;6.38;;;;;;;;;;4938808;29;20043;-68
2022/09/22 05:02:12;;;;;;;8.00;5.20;;;;;;;;;;4955481;29;20438;-69
2022/09/22 05:04:39;;;;;;;7.03;6.05;;;;;;;;;;4955515;29;20051;-68
2022/09/22 05:07:05;;;;;;;9.48;6.45;;;;;;;;;;4955353;29;20553;-68
2022/09/22 05:09:32;;;;;;;6.97;5.63;;;;;;;;;;4954816;29;20051;-68
2022/09/22 05:12:00;;;;;;;6.65;5.10;;;;;;;;;;4955004;29;20110;-68
2022/09/22 05:14:28;;;;;;;9.00;5.03;;;;;;;;;;4955081;29;20055;-68
2022/09/22 05:16:55;;;;;;;8.95;5.75;;;;;;;;;;4962641;28;20046;-68
2022/09/22 05:19:22;;;;;;;8.23;5.43;;;;;;;;;;4955197;28;20584;-68
2022/09/22 05:21:50;;;;;;;6.82;5.07;;;;;;;;;;4954773;29;20418;-68
2022/09/22 05:24:16;;;;;;;8.95;5.18;;;;;;;;;;4954704;29;20066;-68
2022/09/22 05:26:43;;;;;;;6.65;4.28;;;;;;;;;;4960832;28;20568;-68
2022/09/22 05:29:09;;;;;;;11.65;4.85;;;;;;;;;;4974061;28;20105;-68
2022/09/22 05:31:36;;;;;;;9.27;5.60;;;;;;;;;;4969896;28;20391;-66
2022/09/22 05:34:03;;;;;;;9.40;4.68;;;;;;;;;;4970585;28;20107;-67
2022/09/22 05:36:29;;;;;;;7.90;4.90;;;;;;;;;;4971814;28;20488;-67
2022/09/22 05:38:56;;;;;;;9.05;5.32;;;;;;;;;;4978403;28;20046;-67
2022/09/22 05:41:23;;;;;;;6.68;4.97;;;;;;;;;;4980061;28;20047;-67
2022/09/22 05:43:50;;;;;;;6.47;5.10;;;;;;;;;;4979575;28;20498;-67
2022/09/22 05:46:16;;;;;;;9.45;5.45;;;;;;;;;;4977058;28;20054;-66
2022/09/22 05:48:43;;;;;;;6.60;5.00;;;;;;;;;;4960120;29;20051;-67
2022/09/22 05:51:10;;;;;;;9.02;5.70;;;;;;;;;;4956008;29;20110;-67
2022/09/22 05:53:36;;;;;;;7.57;5.68;;;;;;;;;;4955209;29;20059;-68
2022/09/22 05:56:03;;;;;;;8.55;6.07;;;;;;;;;;4936864;29;20332;-68
2022/09/22 05:58:30;;;;;;;8.15;6.13;;;;;;;;;;4953983;29;20059;-68
2022/09/22 06:00:56;;;;;;;6.70;5.47;;;;;;;;;;4953935;29;20106;-67
2022/09/22 06:03:23;;;;;;;5.50;4.97;;;;;;;;;;4953719;29;20051;-66
2022/09/22 06:05:50;;;;;;;7.10;5.28;;;;;;;;;;4954003;29;20117;-67
2022/09/22 06:08:16;;;;;;;9.48;5.28;;;;;;;;;;4953269;29;20051;-67
2022/09/22 06:10:44;;;;;;;7.00;4.60;;;;;;;;;;4953128;29;20054;-68
2022/09/22 06:13:11;;;;;;;6.53;5.40;;;;;;;;;;4954168;29;20062;-67
2022/09/22 06:15:38;;;;;;;7.43;4.97;;;;;;;;;;4954557;29;20063;-68
2022/09/22 06:18:06;;;;;;;6.28;5.45;;;;;;;;;;4969551;28;20094;-67
2022/09/22 06:20:40;;;;;;;7.20;5.00;;;;;;;;;;4972642;28;20070;-67
2022/09/22 06:23:07;;;;;;;7.38;5.57;;;;;;;;;;4954879;28;20568;-67
2022/09/22 06:25:34;;;;;;;8.45;5.90;;;;;;;;;;4971878;28;20058;-68
2022/09/22 06:28:04;;;;;;;8.05;5.95;;;;;;;;;;4971693;28;20528;-68
2022/09/22 06:30:31;;;;;;;8.40;6.07;;;;;;;;;;4972181;28;20046;-68
2022/09/22 06:32:58;;;;;;;11.98;6.18;;;;;;;;;;4954794;28;20050;-68
2022/09/22 06:35:27;;;;;;;8.90;6.32;;;;;;;;;;4971991;28;20059;-67
2022/09/22 06:37:57;;;;;;;8.75;7.20;;;;;;;;;;4957277;28;20458;-67
2022/09/22 06:40:24;;;;;;;10.80;8.10;;;;;;;;;;4952947;29;20098;-68
2022/09/22 06:42:59;;;;;;;10.00;7.82;;;;;;;;;;4952252;29;20058;-68
2022/09/22 06:45:25;;;;;;;12.20;8.25;;;;;;;;;;4955578;29;20052;-68
2022/09/22 06:48:01;;;;;;;11.23;7.28;;;;;;;;;;4959586;28;20051;-67
2022/09/22 06:50:35;;;;;;;9.70;7.50;;;;;;;;;;4945600;29;20440;-67
2022/09/22 06:53:05;;;;;;;12.20;8.38;;;;;;;;;;4929248;29;20052;-67
2022/09/22 06:55:33;;;;;;;11.90;8.80;;;;;;;;;;4945178;29;20111;-66
2022/09/22 06:58:01;;;;;;;14.25;7.40;;;;;;;;;;4972770;28;20078;-67
2022/09/22 07:00:32;;;;;;;9.43;7.78;;;;;;;;;;4983488;28;20051;-66
2022/09/22 07:03:07;;;;;;;10.40;8.15;;;;;;;;;;4985530;28;20054;-67
2022/09/22 07:05:35;;;;;;;13.27;8.32;;;;;;;;;;4986952;28;20129;-68
2022/09/22 07:08:03;;;;;;;13.15;8.60;;;;;;;;;;4986732;28;20054;-68
2022/09/22 07:10:36;;;;;;;11.73;8.52;;;;;;;;;;4976298;28;20047;-67
2022/09/22 07:13:06;;;;;;;11.35;8.10;;;;;;;;;;4974096;29;20510;-67
2022/09/22 07:15:34;;;;;;;11.30;8.25;;;;;;;;;;4972170;29;20059;-67
2022/09/22 07:18:03;;;;;;;15.43;9.00;;;;;;;;;;4986398;28;20061;-67
2022/09/22 07:20:34;;;;;;;12.15;8.63;;;;;;;;;;4990687;28;20070;-68
2022/09/22 07:23:01;;;;;;;13.55;8.05;;;;;;;;;;4980455;28;20027;-69
2022/09/22 07:25:32;;;;;;;10.25;8.32;;;;;;;;;;4978892;28;20066;-65
2022/09/22 07:28:03;;;;;;;9.88;7.95;;;;;;;;;;4974161;28;20055;-66
2022/09/22 07:30:30;;;;;;;13.32;8.98;;;;;;;;;;4968292;28;20130;-67
2022/09/22 07:32:57;;;;;;;9.40;7.53;;;;;;;;;;4970492;28;20027;-68
2022/09/22 07:35:25;;;;;;;11.05;7.88;;;;;;;;;;4960832;28;20052;-67
2022/09/22 07:37:55;;;;;;;9.55;7.93;;;;;;;;;;4965756;29;20048;-68
2022/09/22 07:40:22;;;;;;;9.00;7.10;;;;;;;;;;4957317;29;20048;-68
2022/09/22 07:42:49;;;;;;;9.60;7.38;;;;;;;;;;4956750;29;20057;-70
2022/09/22 07:45:16;;;;;;;9.27;6.43;;;;;;;;;;4955839;29;20599;-70
2022/09/22 07:50:29;;;;;;;6.55;5.68;;;;;;;;;;4943884;29;20050;-69
2022/09/22 07:52:55;;;;;;;7.18;6.28;;;;;;;;;;4954802;29;20098;-69
2022/09/22 07:55:23;;;;;;;7.38;5.40;;;;;;;;;;4951786;29;20055;-68
2022/09/22 07:57:57;;;;;;;6.82;5.28;;;;;;;;;;4958028;28;20057;-70
2022/09/22 08:00:26;;;;;;;6.22;4.75;;;;;;;;;;4963819;28;20064;-72
2022/09/22 08:02:56;;;;;;;7.13;4.65;;;;;;;;;;4969899;28;20190;-68
2022/09/22 08:05:25;;;;;;;4.38;3.95;;;;;;;;;;4974691;28;20036;-70
2022/09/22 08:07:53;;;;;;;6.30;4.13;;;;;;;;;;4970368;28;20040;-67
2022/09/22 08:10:20;;;;;;;5.13;3.70;;;;;;;;;;4947210;29;20047;-69
2022/09/22 08:12:47;;;;;;;4.15;3.42;;;;;;;;;;4963248;29;20025;-72
2022/09/22 08:15:13;;;;;;;3.33;2.95;;;;;;;;;;4962627;29;20047;-71
2022/09/22 08:17:40;;;;;;;4.13;3.20;;;;;;;;;;4964063;29;20055;-68
2022/09/22 08:20:07;;;;;;;4.85;3.35;;;;;;;;;;4967156;29;20040;-70
2022/09/22 08:22:34;;;;;;;3.67;3.30;;;;;;;;;;4964316;28;20095;-68
2022/09/22 08:25:03;;;;;;;7.85;3.28;;;;;;;;;;4973755;28;20035;-75
2022/09/22 08:27:45;;;;;;;8.07;3.42;;;;;;;;;;4952061;28;20809;-74
2022/09/22 08:30:12;;;;;;;6.00;2.83;;;;;;;;;;4940605;29;20055;-74
2022/09/22 08:32:40;;;;;;;3.03;2.70;;;;;;;;;;4964993;29;20043;-71
2022/09/22 08:35:07;;;;;;;4.70;2.83;;;;;;;;;;4970286;29;20032;-67
2022/09/22 08:37:36;;;;;;;3.72;3.03;;;;;;;;;;4968450;28;20035;-76
2022/09/22 08:40:06;;;;;;;3.90;2.63;;;;;;;;;;4938483;29;20039;-69
2022/09/22 08:42:32;;;;;;;2.88;2.22;;;;;;;;;;4958261;29;20054;-68
2022/09/22 08:45:09;;;;;;;3.10;2.50;;;;;;;;;;4931571;29;20052;-67
2022/09/22 08:53:42;;;;;;;2.53;2.30;;;;;;;;;;4934619;29;20051;-66
2022/09/22 08:56:35;;;;;;;3.13;1.70;;;;;;;;;;4939780;29;20031;-71
2022/09/22 08:59:07;;;;;;;2.75;2.03;;;;;;;;;;4942633;28;20180;-66
2022/09/22 09:01:52;;;;;;;3.63;2.30;;;;;;;;;;4964342;28;20269;-70
2022/09/22 09:05:03;;;;;;;3.05;2.17;;;;;;;;;;4961347;29;20066;-70
2022/09/22 09:07:51;;;;;;;2.58;1.70;;;;;;;;;;4958843;28;20074;-68
2022/09/22 09:10:41;;;;;;;1.88;1.58;;;;;;;;;;4955502;29;20043;-68
2022/09/22 09:13:29;;;;;;;1.45;1.35;;;;;;;;;;4950576;29;20047;-70
2022/09/22 09:16:14;;;;;;;1.90;1.27;;;;;;;;;;4956825;29;20028;-70
2022/09/22 09:18:44;;;;;;;2.90;1.38;;;;;;;;;;4960599;29;20055;-69
2022/09/22 09:21:13;;;;;;;1.67;1.13;;;;;;;;;;4932517;29;20055;-67
2022/09/22 09:23:45;;;;;;;5.22;1.35;;;;;;;;;;4925084;29;20070;-66
2022/09/22 09:26:32;;;;;;;1.38;0.90;;;;;;;;;;4958251;28;20113;-65
2022/09/22 09:29:00;;;;;;;3.78;1.52;;;;;;;;;;4947168;29;20079;-72
2022/09/22 09:31:40;;;;;;;1.23;1.10;;;;;;;;;;4948182;29;20134;-71
2022/09/22 09:34:12;;;;;;;1.33;1.05;;;;;;;;;;4917007;29;20134;-69
2022/09/22 09:36:41;;;;;;;1.27;1.10;;;;;;;;;;4913584;28;20051;-69
2022/09/22 09:39:34;;;;;;;1.20;0.88;;;;;;;;;;4923542;29;20114;-72
2022/09/22 09:45:36;;;;;;;1.00;0.90;;;;;;;;;;4942810;29;20049;-73
2022/09/22 09:48:06;;;;;;;3.38;0.90;;;;;;;;;;4942710;28;20066;-68
2022/09/22 09:50:32;;;;;;;3.53;1.33;;;;;;;;;;4939084;29;20051;-68
2022/09/22 09:52:59;;;;;;;2.78;0.90;;;;;;;;;;4929051;29;20063;-68
2022/09/22 09:55:26;;;;;;;1.17;0.90;;;;;;;;;;4943216;29;20063;-70
2022/09/22 10:00:29;;;;;;;0.90;0.90;;;;;;;;;;4939323;28;20394;-72
2022/09/22 10:00:59;;;;;;;1.17;1.02;;;;;;;;;;4938642;29;20111;-75
2022/09/22 10:03:27;;;;;;;1.80;0.73;;;;;;;;;;4920806;29;20082;-68
2022/09/22 10:06:05;;;;;;;2.92;0.90;;;;;;;;;;4937288;29;20051;-68
2022/09/22 10:08:35;;;;;;;1.52;0.90;;;;;;;;;;4922152;29;20525;-68
2022/09/22 10:11:02;;;;;;;3.92;1.27;;;;;;;;;;4936469;29;20266;-68
2022/09/22 10:13:31;;;;;;;2.50;1.30;;;;;;;;;;4911601;29;20057;-67
2022/09/22 10:16:16;;;;;;;1.50;1.15;;;;;;;;;;4938522;29;20103;-68
2022/09/22 10:18:43;;;;;;;0.82;0.82;;;;;;;;;;4938265;28;20507;-68
2022/09/22 10:21:22;;;;;;;1.98;1.10;;;;;;;;;;4938471;29;20052;-68
2022/09/22 10:23:53;;;;;;;1.02;0.80;;;;;;;;;;4937499;29;20051;-67
2022/09/22 10:26:27;;;;;;;2.60;1.08;;;;;;;;;;4936943;29;20134;-68
2022/09/22 10:29:05;;;;;;;1.13;0.90;;;;;;;;;;4940262;28;20502;-67
2022/09/22 10:31:32;;;;;;;1.10;0.80;;;;;;;;;;4938402;29;21208;-68
2022/09/22 10:33:59;;;;;;;1.10;1.00;;;;;;;;;;4921203;29;20413;-67
2022/09/22 10:36:28;;;;;;;0.93;0.90;;;;;;;;;;4937527;29;20051;-68
2022/09/22 10:38:54;;;;;;;0.70;0.70;;;;;;;;;;4919152;29;20560;-68
2022/09/22 10:41:29;;;;;;;1.25;0.82;;;;;;;;;;4938046;29;20094;-67
2022/09/22 10:44:13;;;;;;;2.85;0.98;;;;;;;;;;4909186;29;20503;-68
2022/09/22 10:47:21;;;;;;;1.88;0.90;;;;;;;;;;4929708;28;20055;-67
2022/09/22 10:50:04;;;;;;;2.88;0.65;;;;;;;;;;4952125;28;20052;-67
2022/09/22 10:52:44;;;;;;;0.98;0.90;;;;;;;;;;4956021;29;20051;-65
2022/09/22 10:55:29;;;;;;;0.95;0.82;;;;;;;;;;4932499;29;20051;-66
2022/09/22 10:58:08;;;;;;;1.02;0.60;;;;;;;;;;4932778;29;20043;-67
2022/09/22 11:00:35;;;;;;;0.82;0.60;;;;;;;;;;4959707;29;20115;-64
2022/09/22 11:03:26;;;;;;;1.17;1.08;;;;;;;;;;4945135;29;20042;-67
2022/09/22 11:12:29;;;;;;;1.00;0.75;;;;;;;;;;4926207;29;20055;-67
2022/09/22 11:15:14;;;;;;;0.95;0.85;;;;;;;;;;4936526;29;20400;-67
2022/09/22 11:17:53;;;;;;;1.17;0.75;;;;;;;;;;4937159;29;20075;-67
2022/09/22 11:20:40;;;;;;;1.00;0.80;;;;;;;;;;4926201;29;20122;-67
2022/09/22 11:23:13;;;;;;;2.80;0.82;;;;;;;;;;4924200;29;20502;-68
2022/09/22 11:25:54;;;;;;;;;;;;;;;;;;4938313;29;20122;-67
2022/09/22 11:28:42;;;;;;;1.52;1.20;;;;;;;;;;4940073;28;20437;-68
2022/09/22 11:31:38;;;;;;;0.60;0.60;;;;;;;;;;4939368;29;20421;-67
2022/09/22 11:34:39;;;;;;;1.13;0.80;;;;;;;;;;4930022;29;20051;-67
2022/09/22 11:37:27;;;;;;;1.52;0.80;;;;;;;;;;4913504;29;20051;-67
2022/09/22 11:40:25;;;;;;;0.75;0.75;;;;;;;;;;4936707;29;20059;-68
2022/09/22 11:43:06;;;;;;;1.00;0.80;;;;;;;;;;4938149;29;20048;-67
2022/09/22 11:45:35;;;;;;;0.98;0.50;;;;;;;;;;4939565;29;20083;-67
2022/09/22 11:48:08;;;;;;;1.13;0.55;;;;;;;;;;4943306;28;20059;-68
2022/09/22 11:51:06;;;;;;;1.08;0.63;;;;;;;;;;4938087;29;20067;-68
2022/09/22 11:53:54;;;;;;;0.52;0.52;;;;;;;;;;4927371;29;20130;-66
2022/09/22 11:56:40;;;;;;;0.73;0.60;;;;;;;;;;4939791;29;20052;-65
2022/09/22 11:59:10;;;;;;;0.47;0.47;;;;;;;;;;4932570;29;20111;-66
2022/09/22 12:01:37;;;;;;;0.50;0.50;;;;;;;;;;4942928;29;20081;-66
2022/09/22 12:04:10;;;;;;;1.10;0.60;;;;;;;;;;4936440;29;20065;-67
2022/09/22 12:06:40;;;;;;;0.55;0.55;;;;;;;;;;4932524;29;20086;-68
2022/09/22 12:09:28;;;;;;;1.02;0.80;;;;;;;;;;4927524;29;20051;-68
2022/09/22 12:11:59;;;;;;;0.90;0.77;;;;;;;;;;4940464;28;20087;-70
2022/09/22 12:14:26;;;;;;;1.95;0.80;;;;;;;;;;4930158;29;20092;-71
2022/09/22 12:16:57;;;;;;;0.88;0.70;;;;;;;;;;4926694;29;20050;-66
2022/09/22 12:19:36;;;;;;;0.88;0.68;;;;;;;;;;4949473;29;20031;-72
2022/09/22 12:22:22;;;;;;;0.73;0.60;;;;;;;;;;4968666;29;20039;-67
2022/09/22 12:24:49;;;;;;;0.95;0.60;;;;;;;;;;4969155;29;20043;-68
2022/09/22 12:27:38;;;;;;;2.58;1.15;;;;;;;;;;4966062;29;20059;-79
2022/09/22 12:30:06;;;;;;;1.20;0.70;;;;;;;;;;4931398;29;20066;-70
2022/09/22 12:32:42;;;;;;;1.50;1.13;;;;;;;;;;4955748;29;20024;-67
2022/09/22 12:35:38;;;;;;;0.70;0.50;;;;;;;;;;4947179;29;20051;-73
2022/09/22 12:38:05;;;;;;;1.67;0.70;;;;;;;;;;4917349;29;20052;-75
2022/09/22 12:40:40;;;;;;;1.17;0.60;;;;;;;;;;4946701;29;20482;-73
2022/09/22 12:43:19;;;;;;;1.70;0.60;;;;;;;;;;4929133;29;20052;-71
2022/09/22 12:45:46;;;;;;;2.08;0.60;;;;;;;;;;4926058;28;20083;-67
2022/09/22 12:48:45;;;;;;;1.92;0.52;;;;;;;;;;4925795;29;20135;-69
2022/09/22 12:51:28;;;;;;;1.08;0.70;;;;;;;;;;4927819;29;20188;-74
2022/09/22 12:54:13;;;;;;;;;;;;;;;;;;4927981;29;20048;-72
2022/09/22 12:57:01;;;;;;;0.73;0.45;;;;;;;;;;4942128;29;19934;-68
2022/09/22 12:59:34;;;;;;;1.20;0.65;;;;;;;;;;4934653;29;20055;-71
2022/09/22 13:02:12;;;;;;;0.60;0.60;;;;;;;;;;4942111;29;20078;-74
2022/09/22 13:04:39;;;;;;;0.95;0.50;;;;;;;;;;4945556;28;20063;-75
2022/09/22 13:07:41;;;;;;;0.85;0.63;;;;;;;;;;4925038;29;20127;-76
2022/09/22 13:10:31;;;;;;;0.67;0.60;;;;;;;;;;4934003;29;20055;-75
2022/09/22 13:13:00;;;;;;;0.50;0.50;;;;;;;;;;4934005;29;20059;-73
2022/09/22 13:15:30;;;;;;;1.08;0.60;;;;;;;;;;4942601;29;20054;-65
2022/09/22 13:17:57;;;;;;;0.50;0.50;;;;;;;;;;4944868;28;20055;-64
2022/09/22 13:20:31;;;;;;;0.60;0.50;;;;;;;;;;4961710;29;20051;-63
2022/09/22 13:23:05;;;;;;;0.70;0.40;;;;;;;;;;4963475;29;20027;-65
2022/09/22 13:25:31;;;;;;;0.45;0.40;;;;;;;;;;4964674;29;20041;-65
2022/09/22 13:28:07;;;;;;;0.50;0.50;;;;;;;;;;4962203;28;20055;-64
2022/09/22 13:30:35;;;;;;;0.40;0.40;;;;;;;;;;4961924;29;20107;-64
2022/09/22 13:33:01;;;;;;;3.28;0.70;;;;;;;;;;4962319;29;20110;-65
2022/09/22 13:35:32;;;;;;;1.15;0.60;;;;;;;;;;4961858;29;20074;-62
2022/09/22 13:37:59;;;;;;;1.35;0.60;;;;;;;;;;4955245;29;20027;-67
2022/09/22 13:40:27;;;;;;;1.50;0.68;;;;;;;;;;4966492;29;20071;-71
2022/09/22 13:42:56;;;;;;;0.95;0.60;;;;;;;;;;4948042;29;20047;-71
2022/09/22 13:45:47;;;;;;;0.82;0.50;;;;;;;;;;4950526;28;20031;-71
2022/09/22 13:48:32;;;;;;;1.55;0.60;;;;;;;;;;4944222;28;20039;-71
2022/09/22 13:51:08;;;;;;;1.13;0.50;;;;;;;;;;4980674;23;20035;-76
2022/09/22 13:53:34;;;;;;;2.13;0.70;;;;;;;;;;4962406;28;20377;-76
2022/09/22 13:56:01;;;;;;;0.70;0.60;;;;;;;;;;4979476;28;20046;-76
2022/09/22 13:58:37;;;;;;;0.60;0.60;;;;;;;;;;4962727;28;20054;-76
2022/09/22 14:01:16;;;;;;;0.63;0.50;;;;;;;;;;4999251;28;20134;-75
2022/09/22 14:03:43;;;;;;;0.40;0.40;;;;;;;;;;5096065;23;20045;-67
2022/09/22 14:06:23;;;;;;;0.50;0.50;;;;;;;;;;4997279;28;20054;-70
2022/09/22 14:08:50;;;;;;;1.40;0.70;;;;;;;;;;4983450;28;20152;-69
2022/09/22 14:11:24;;;;;;;0.50;0.43;;;;;;;;;;4999687;28;20140;-70
2022/09/22 14:13:54;;;;;;;2.28;0.65;;;;;;;;;;4978372;28;20102;-69
2022/09/22 14:16:31;;;;;;;0.75;0.60;;;;;;;;;;5001342;28;20057;-66
2022/09/22 14:19:00;;;;;;;0.65;0.60;;;;;;;;;;5004844;28;20468;-69
2022/09/22 14:21:26;;;;;;;1.33;0.50;;;;;;;;;;4999988;28;20054;-68
2022/09/22 14:23:53;;;;;;;0.98;0.70;;;;;;;;;;4996087;28;20077;-75
2022/09/22 14:26:32;;;;;;;0.40;0.40;;;;;;;;;;4992913;28;20073;-77
2022/09/22 14:29:09;;;;;;;0.85;0.40;;;;;;;;;;4998730;28;20493;-71
2022/09/22 14:31:36;;;;;;;0.75;0.50;;;;;;;;;;4999863;28;20394;-74
2022/09/22 14:34:06;;;;;;;0.93;0.50;;;;;;;;;;4991677;28;20050;-73
2022/09/22 14:36:32;;;;;;;0.40;0.30;;;;;;;;;;4983824;28;20046;-76
2022/09/22 14:39:00;;;;;;;0.60;0.35;;;;;;;;;;4996211;28;20128;-74
2022/09/22 14:41:36;;;;;;;1.13;0.70;;;;;;;;;;4997412;28;20049;-73
2022/09/22 14:44:34;;;;;;;0.75;0.50;;;;;;;;;;4996172;28;20551;-71
2022/09/22 14:47:08;;;;;;;0.88;0.60;;;;;;;;;;4997944;28;20096;-72
2022/09/22 14:49:39;;;;;;;0.90;0.65;;;;;;;;;;4992751;28;20050;-66
2022/09/22 14:52:27;;;;;;;0.80;0.70;;;;;;;;;;4994058;28;20081;-67
2022/09/22 14:54:55;;;;;;;3.47;1.17;;;;;;;;;;4987905;28;20086;-69
2022/09/22 14:57:21;;;;;;;0.30;0.30;;;;;;;;;;4991077;28;20054;-67
2022/09/22 15:02:48;;;;;;;1.85;0.57;;;;;;;;;;4971538;28;20050;-72
2022/09/22 15:05:26;;;;;;;2.00;0.60;;;;;;;;;;4992617;28;20103;-71
2022/09/22 15:07:56;;;;;;;1.70;0.70;;;;;;;;;;5006019;28;20049;-69
2022/09/22 15:10:30;;;;;;;1.23;0.65;;;;;;;;;;4994122;28;20061;-70
2022/09/22 15:13:18;;;;;;;1.95;0.80;;;;;;;;;;5013388;28;20069;-67
2022/09/22 15:15:46;;;;;;;1.17;0.85;;;;;;;;;;5011427;28;20049;-71
2022/09/22 15:18:18;;;;;;;1.33;0.60;;;;;;;;;;4997440;28;20570;-72
2022/09/22 15:21:10;;;;;;;0.70;0.70;;;;;;;;;;4996883;28;20500;-71
2022/09/22 15:23:40;;;;;;;2.55;0.85;;;;;;;;;;5012163;28;20049;-69
2022/09/22 15:26:21;;;;;;;0.65;0.65;;;;;;;;;;4997462;28;20058;-70
2022/09/22 15:28:52;;;;;;;0.47;0.47;;;;;;;;;;4995546;28;20042;-69
2022/09/22 15:31:27;;;;;;;0.70;0.63;;;;;;;;;;5013669;28;20042;-67
2022/09/22 15:34:02;;;;;;;0.60;0.60;;;;;;;;;;5012546;28;20050;-66
2022/09/22 15:36:31;;;;;;;1.15;0.60;;;;;;;;;;4996940;28;20042;-68
2022/09/22 15:39:06;;;;;;;0.60;0.60;;;;;;;;;;5013044;28;20046;-68